Flight Track Log - Related Links

Times and Time Zones

All times are in EDT time to prevent confusion due to time zone crossing. See the SWA118 flight status page for this flight to view local times or setup timezone preferences in your user account.

Time Position Orientation Groundspeed Altitude Reporting Facility
EDT Latitude Longitude Course Direction KTS MPH feet Rate Location/Type
Sun 03:07:44 PM 29.6308 -95.2633 54° Northeast 150 173 1,100  Level Houston Center
Sun 03:08:30 PM 29.6494 -95.2333 54° Northeast 242 278 1,800 2,056 Climbing Houston Center
Sun 03:09:32 PM 29.7156 -95.2581 342° North 248 285 4,800 2,952 Climbing Houston Center
Sun 03:10:34 PM 29.7967 -95.2994 336° Northwest 265 305 7,900 2,640 Climbing Houston Center
Sun 03:11:37 PM 29.8783 -95.3172 349° North 304 350 10,300 1,872 Climbing Houston Center
Sun 03:12:39 PM 29.9717 -95.2967 11° North 333 383 11,800 2,081 Climbing Houston Center
Sun 03:13:41 PM 30.0714 -95.2597 18° North 371 427 14,600 2,565 Climbing Houston Center
Sun 03:14:43 PM 30.1753 -95.2236 17° North 385 443 17,100 2,419 Climbing Houston Center
Sun 03:15:45 PM 30.2814 -95.1858 17° North 394 453 19,600 2,419 Climbing Houston Center
Sun 03:16:47 PM 30.4119 -95.1383 17° North 406 467 22,100 1,742 Climbing Houston Center
Sun 03:17:49 PM 30.5225 -95.0969 18° North 410 472 23,200 1,500 Climbing Houston Center
Sun 03:18:51 PM 30.6350 -95.0453 22° Northeast 432 497 25,200 1,597 Climbing Houston Center
Sun 03:19:53 PM 30.7447 -94.9778 28° Northeast 440 506 26,500 1,344 Climbing Houston Center
Sun 03:20:56 PM 30.8561 -94.9086 28° Northeast 450 518 28,000 1,392 Climbing Houston Center
Sun 03:21:58 PM 30.9700 -94.8375 28° Northeast 458 527 29,400 1,355 Climbing Houston Center
Sun 03:23:00 PM 31.1072 -94.7508 28° Northeast 467 537 30,800 1,200 Climbing Houston Center
Sun 03:24:08 PM 31.2397 -94.6631 30° Northeast 456 525 32,000 558 Climbing Fort Worth Center
Sun 03:25:09 PM 31.3528 -94.5867 30° Northeast 461 531 32,000  Level Fort Worth Center
Sun 03:26:09 PM 31.4700 -94.5053 31° Northeast 471 542 32,000 500 Level Fort Worth Center
Sun 03:27:09 PM 31.5831 -94.4261 31° Northeast 471 542 33,000 1,200 Climbing Fort Worth Center
Sun 03:28:09 PM 31.6939 -94.3492 31° Northeast 471 542 34,400 1,150 Climbing Fort Worth Center
Sun 03:29:09 PM 31.8069 -94.2722 30° Northeast 466 536 35,300 1,008 Climbing Fort Worth Center
Sun 03:30:08 PM 31.9156 -94.1925 32° Northeast 466 536 36,400 850 Climbing Fort Worth Center
Sun 03:31:09 PM 32.0261 -94.1178 30° Northeast 461 531 37,000 298 Climbing Fort Worth Center
Sun 03:32:09 PM 32.1347 -94.0378 32° Northeast 456 525 37,000  Level Fort Worth Center
Sun 03:33:09 PM 32.2308 -93.9653 33° Northeast 456 525 37,000  Level Fort Worth Center
Sun 03:34:09 PM 32.3394 -93.8900 30° Northeast 456 525 37,000  Level Fort Worth Center
Sun 03:35:09 PM 32.4458 -93.8144 31° Northeast 451 519 37,000  Level Fort Worth Center
Sun 03:36:09 PM 32.5564 -93.7361 31° Northeast 444 511 37,000  Level Fort Worth Center
Sun 03:37:08 PM 32.6625 -93.6603 31° Northeast 444 511 37,000  Level Fort Worth Center
Sun 03:38:09 PM 32.7708 -93.5817 31° Northeast 444 511 37,000  Level Fort Worth Center
Sun 03:39:09 PM 32.8792 -93.5028 31° Northeast 449 517 37,000  Level Fort Worth Center
Sun 03:40:09 PM 32.9914 -93.4261 30° Northeast 454 522 37,000  Level Fort Worth Center
Sun 03:41:09 PM 33.0975 -93.3469 32° Northeast 454 522 37,000  Level Fort Worth Center
Sun 03:42:56 PM 33.2908 -93.2103 31° Northeast 490 564 37,000  Level Memphis Center
Sun 03:43:57 PM 33.4011 -93.1317 31° Northeast 466 536 37,000  Level Memphis Center
Sun 03:44:56 PM 33.5072 -93.0528 32° Northeast 455 524 37,000  Level Memphis Center
Sun 03:45:56 PM 33.6131 -92.9764 31° Northeast 455 524 37,000  Level Memphis Center
Sun 03:46:56 PM 33.7192 -92.8969 32° Northeast 450 518 37,000  Level Memphis Center
Sun 03:47:57 PM 33.8231 -92.8200 32° Northeast 445 512 37,000  Level Memphis Center
Sun 03:48:57 PM 33.9286 -92.7456 30° Northeast 440 506 37,000  Level Memphis Center
Sun 03:49:56 PM 34.0344 -92.6681 31° Northeast 435 501 37,000  Level Memphis Center
Sun 03:50:56 PM 34.1425 -92.5808 34° Northeast 430 495 37,000  Level Memphis Center
Sun 03:51:56 PM 34.2506 -92.4981 32° Northeast 436 502 37,000  Level Memphis Center
Sun 03:52:56 PM 34.3561 -92.4228 30° Northeast 436 502 37,000  Level Memphis Center
Sun 03:53:57 PM 34.4617 -92.3397 33° Northeast 441 507 37,000  Level Memphis Center
Sun 03:54:57 PM 34.5714 -92.2614 30° Northeast 441 507 37,000  Level Memphis Center
Sun 03:55:56 PM 34.6728 -92.1881 31° Northeast 452 520 37,000  Level Memphis Center
Sun 03:56:57 PM 34.7922 -92.1375 19° North 450 518 37,000  Level Memphis Center
Sun 03:57:57 PM 34.9161 -92.0894 18° North 455 524 37,000  Level Memphis Center
Sun 03:58:57 PM 35.0400 -92.0411 18° North 455 524 37,000  Level Memphis Center
Sun 03:59:57 PM 35.1678 -91.9903 18° North 468 539 37,000  Level Memphis Center
Sun 04:00:56 PM 35.2936 -91.9444 17° North 468 539 37,000  Level Memphis Center
Sun 04:01:57 PM 35.4194 -91.8933 18° North 468 539 37,000  Level Memphis Center
Sun 04:02:57 PM 35.5431 -91.8419 19° North 468 539 37,000  Level Memphis Center
Sun 04:03:57 PM 35.6686 -91.7958 17° North 463 533 37,000  Level Memphis Center
Sun 04:04:57 PM 35.7922 -91.7467 18° North 463 533 37,000  Level Memphis Center
Sun 04:06:31 PM 35.9881 -91.6694 18° North 468 539 37,000  Level Kansas City Center
Sun 04:06:57 PM 36.0353 -91.6506 18° North 457 526 37,000  Level Memphis Center
Sun 04:07:57 PM 36.1628 -91.6014 17° North 457 526 37,000 -300 Level Memphis Center
Sun 04:08:57 PM 36.2883 -91.5517 18° North 464 534 36,400 -807 Descending Memphis Center
Sun 04:09:56 PM 36.4078 -91.5044 18° North 459 528 35,400 -700 Descending Memphis Center
Sun 04:10:57 PM 36.5458 -91.4494 18° North 466 536 35,000 -198 Descending Memphis Center
Sun 04:11:57 PM 36.6672 -91.3994 18° North 461 531 35,000  Level Memphis Center
Sun 04:12:56 PM 36.7906 -91.3492 18° North 461 531 35,000  Level Memphis Center
Sun 04:13:57 PM 36.9139 -91.2961 19° North 461 531 35,000  Level Memphis Center
Sun 04:15:50 PM 37.1350 -91.2064 18° North 468 539 35,000  Level Kansas City Center
Sun 04:16:52 PM 37.2583 -91.1558 18° North 467 537 35,000  Level Kansas City Center
Sun 04:17:54 PM 37.3817 -91.1053 18° North 466 536 35,000  Level Kansas City Center
Sun 04:18:56 PM 37.5281 -91.0461 18° North 462 532 35,000  Level Kansas City Center
Sun 04:19:58 PM 37.6458 -90.9978 18° North 461 531 35,000  Level Kansas City Center
Sun 04:21:00 PM 37.7653 -90.9475 18° North 455 524 35,000 -194 Level Kansas City Center
Sun 04:22:02 PM 37.8853 -90.8969 18° North 454 522 34,600 -871 Descending Kansas City Center
Sun 04:23:04 PM 38.0069 -90.8464 18° North 451 519 33,200 -1,694 Descending Kansas City Center
Sun 04:24:06 PM 38.1511 -90.7836 19° North 458 527 31,100 -1,065 Descending Kansas City Center
Sun 04:25:08 PM 38.2764 -90.7314 18° North 466 536 31,000 -48 Descending Kansas City Center
Sun 04:26:10 PM 38.3994 -90.6797 18° North 468 539 31,000  Level Kansas City Center
Sun 04:27:12 PM 38.5228 -90.6292 18° North 461 531 31,000  Level Kansas City Center
Sun 04:28:14 PM 38.6417 -90.5764 19° North 457 526 31,000 -145 Level Kansas City Center
Sun 04:29:16 PM 38.7675 -90.5275 17° North 459 528 30,700 -629 Descending Kansas City Center
Sun 04:30:18 PM 38.8892 -90.4736 19° North 461 531 29,700 -823 Descending Kansas City Center
Sun 04:31:20 PM 39.0169 -90.4253 16° North 456 525 29,000 -339 Descending Kansas City Center
Sun 04:32:22 PM 39.1411 -90.3789 16° North 461 531 29,000  Level Kansas City Center
Sun 04:33:24 PM 39.2886 -90.3236 16° North 459 528 29,000  Level Kansas City Center
Sun 04:34:26 PM 39.4114 -90.2767 16° North 460 529 29,000  Level Kansas City Center
Sun 04:35:28 PM 39.5367 -90.2294 16° North 466 536 29,000 -484 Level Kansas City Center
Sun 04:36:30 PM 39.6608 -90.1822 16° North 466 536 28,000 -968 Descending Kansas City Center
Sun 04:37:32 PM 39.7797 -90.1386 16° North 461 531 27,000 -484 Descending Kansas City Center
Sun 04:38:34 PM 39.9272 -90.0831 16° North 458 527 27,000  Level Kansas City Center
Sun 04:39:00 PM 39.9758 -90.0656 15° North 460 529 27,000  Level Chicago Center
Sun 04:40:01 PM 40.0964 -90.0183 17° North 455 524 27,000 -98 Level Chicago Center
Sun 04:41:03 PM 40.2194 -89.9711 16° North 458 527 26,800 -629 Descending Chicago Center
Sun 04:42:05 PM 40.3394 -89.9253 16° North 452 520 25,700 -1,016 Descending Chicago Center
Sun 04:43:07 PM 40.4553 -89.8806 16° North 437 503 24,700 -968 Descending Chicago Center
Sun 04:44:09 PM 40.5772 -89.8325 17° North 429 494 23,700 -968 Descending Chicago Center
Sun 04:45:11 PM 40.6822 -89.7706 24° Northeast 427 491 22,700 -1,065 Descending Chicago Center
Sun 04:46:13 PM 40.7578 -89.6142 57° Northeast 426 490 21,500 -1,355 Descending Chicago Center
Sun 04:47:15 PM 40.8075 -89.4981 60° Northeast 417 480 19,900 -1,728 Descending Chicago Center
Sun 04:48:18 PM 40.8639 -89.3669 60° Northeast 411 473 17,900 -1,536 Descending Chicago Center
Sun 04:49:20 PM 40.9294 -89.2133 61° Northeast 400 460 16,700 -1,065 Descending Chicago Center
Sun 04:50:22 PM 40.9811 -89.0906 61° Northeast 384 442 15,700 -1,355 Descending Chicago Center
Sun 04:51:24 PM 41.0372 -88.9589 61° Northeast 376 433 13,900 -1,500 Descending Chicago Center
Sun 04:52:26 PM 41.0867 -88.8411 61° Northeast 369 425 12,600 -1,452 Descending Chicago Center
Sun 04:53:28 PM 41.1519 -88.7450 48° Northeast 363 418 10,900 -1,258 Descending Chicago Center
Sun 04:54:30 PM 41.2261 -88.6650 39° Northeast 346 398 10,000 -1,210 Descending Chicago Center
Sun 04:55:32 PM 41.2953 -88.5903 39° Northeast 325 374 8,400 -1,452 Descending Chicago Center
Sun 04:56:34 PM 41.3633 -88.5175 39° Northeast 317 365 7,000 -1,161 Descending Chicago Center
Sun 04:57:36 PM 41.4239 -88.4119 53° Northeast 299 344 6,000 -677 Descending Chicago Center
Sun 04:58:38 PM 41.4664 -88.3208 58° Northeast 292 336 5,600 -677 Descending Chicago Center
Sun 04:59:40 PM 41.5069 -88.2325 58° Northeast 283 326 4,600 -871 Descending Chicago Center
Sun 05:00:42 PM 41.5472 -88.1464 58° Northeast 276 318 3,800 -629 Descending Chicago Center
Sun 05:01:44 PM 41.5878 -88.0606 58° Northeast 273 314 3,300 -387 Descending Chicago Center
Sun 05:02:46 PM 41.6258 -87.9772 59° Northeast 268 308 3,000 -194 Descending Chicago Center
Sun 05:03:48 PM 41.6611 -87.9056 57° Northeast 250 288 2,900 -286 Descending Chicago Center
Sun 05:04:10 PM 41.6833 -87.8667 53° Northeast 238 274 2,600 -439 Descending Chicago TRACON
Sun 05:05:10 PM 41.7333 -87.8333 26° Northeast 218 251 2,300 -389 Descending Chicago TRACON
Sun 05:05:58 PM 41.7833 -87.8333 360° North 194 223 1,900 -526 Descending Chicago TRACON
Sun 05:07:04 PM 41.8167 -87.7833 48° Northeast 159 183 1,300 -545 Descending Chicago TRACON
Sun 05:09:00 PM 41.7833 -87.7500 North  Level FlightAware Approximate

Login

Don't have an account? Register now (free) for customized features, flight alerts, and more!